Terminal Aerodrome Forecast
Issued by NWS

Home | Current Version | Previous Version | Text Only | Print | Product List | Glossary On
Versions: 1 2 3 4 5 6 7 8 9 10 11 12 13
000
FTUS45 KPSR 210057 AAA
TAFIWA
TAF AMD
KIWA 210057Z 2101/2124 27012G20KT P6SM FEW250
     FM210200 27010KT P6SM FEW250
     FM210700 14006KT P6SM FEW250
     FM212000 29006KT P6SM SKC
      AMD LTD TO CLD VIS AND WIND 2103/2113=

USA.gov is the U.S. government's official web portal to all federal, state and local government web resources and services.